WUP667 KPDK-KPBI
Flight info
| Callsign | WUP667 |
|---|---|
| Flight time | N/A |
| Altitude | 40000 |
| Route | SOONE KENLL CPTAN3 |
| Aircraft | E55P/M-SBDFGHJ2RWY/LB2 |
Departure
| Time | 2026-04-13 02:10 |
|---|---|
| Airport | DeKalb Peachtree Airport (KPDK) |
Arrival
| Time | N/A |
|---|---|
| Airport | Palm Beach International Airport (KPBI) |
| Time | Latitude | Longitude | Altitude | Speed | Heading |
|---|---|---|---|---|---|
| 2026-04-13 01:54 | 33.87747 | -84.30405 | 1003 ft | 0 kts | 66° |
| 2026-04-13 02:04 | 33.87749 | -84.30402 | 1003 ft | 1 kts | 66° |
| 2026-04-13 02:05 | 33.87752 | -84.30384 | 1003 ft | 2 kts | 93° |
| 2026-04-13 02:05 | 33.87735 | -84.30363 | 1003 ft | 4 kts | 156° |
| 2026-04-13 02:05 | 33.87722 | -84.30357 | 1003 ft | 5 kts | 156° |
| 2026-04-13 02:05 | 33.87690 | -84.30341 | 1003 ft | 7 kts | 159° |
| 2026-04-13 02:06 | 33.87686 | -84.30276 | 1003 ft | 10 kts | 84° |
| 2026-04-13 02:06 | 33.87691 | -84.30218 | 1003 ft | 6 kts | 31° |
| 2026-04-13 02:06 | 33.87735 | -84.30206 | 1003 ft | 5 kts | 350° |
| 2026-04-13 02:06 | 33.87777 | -84.30236 | 1003 ft | 11 kts | 334° |
| 2026-04-13 02:07 | 33.87864 | -84.30215 | 1003 ft | 14 kts | 20° |
| 2026-04-13 02:07 | 33.87961 | -84.30173 | 1003 ft | 14 kts | 22° |
| 2026-04-13 02:07 | 33.88056 | -84.30128 | 1003 ft | 14 kts | 21° |
| 2026-04-13 02:07 | 33.88149 | -84.30086 | 1003 ft | 14 kts | 20° |
| 2026-04-13 02:08 | 33.88242 | -84.30045 | 1003 ft | 13 kts | 20° |
| 2026-04-13 02:08 | 33.88331 | -84.30003 | 1003 ft | 13 kts | 22° |
| 2026-04-13 02:08 | 33.88420 | -84.29964 | 1003 ft | 13 kts | 19° |
| 2026-04-13 02:08 | 33.88452 | -84.29884 | 1003 ft | 12 kts | 107° |
| 2026-04-13 02:09 | 33.88422 | -84.29787 | 1003 ft | 11 kts | 112° |
| 2026-04-13 02:09 | 33.88377 | -84.29720 | 1003 ft | 10 kts | 198° |
| 2026-04-13 02:09 | 33.88350 | -84.29733 | 1003 ft | 0 kts | 201° |
| 2026-04-13 02:09 | 33.88200 | -84.29800 | 1003 ft | 61 kts | 203° |
| 2026-04-13 02:10 | 33.87585 | -84.30076 | 1003 ft | 123 kts | 205° |
| 2026-04-13 02:10 | 33.86660 | -84.30483 | 1239 ft | 149 kts | 200° |
| 2026-04-13 02:10 | 33.85591 | -84.31010 | 1580 ft | 181 kts | 203° |
| 2026-04-13 02:10 | 33.84460 | -84.31625 | 2444 ft | 178 kts | 204° |
| 2026-04-13 02:11 | 33.83403 | -84.32230 | 2975 ft | 176 kts | 204° |
| 2026-04-13 02:11 | 33.82224 | -84.32918 | 3072 ft | 200 kts | 205° |
| 2026-04-13 02:11 | 33.80901 | -84.33688 | 3256 ft | 215 kts | 204° |
| 2026-04-13 02:11 | 33.79557 | -84.34479 | 4080 ft | 218 kts | 204° |
| 2026-04-13 02:12 | 33.78260 | -84.35257 | 5149 ft | 209 kts | 205° |
| 2026-04-13 02:12 | 33.76937 | -84.36064 | 5720 ft | 225 kts | 205° |
| 2026-04-13 02:12 | 33.75464 | -84.36960 | 6194 ft | 246 kts | 204° |
| 2026-04-13 02:12 | 33.73923 | -84.37801 | 7066 ft | 245 kts | 191° |
| 2026-04-13 02:13 | 33.72260 | -84.37910 | 8015 ft | 241 kts | 180° |
| 2026-04-13 02:13 | 33.70582 | -84.37923 | 8830 ft | 244 kts | 180° |
| 2026-04-13 02:13 | 33.68869 | -84.37918 | 9646 ft | 247 kts | 180° |
| 2026-04-13 02:13 | 33.67137 | -84.37903 | 10403 ft | 252 kts | 180° |
| 2026-04-13 02:14 | 33.65377 | -84.37876 | 11163 ft | 257 kts | 180° |
| 2026-04-13 02:14 | 33.63579 | -84.37841 | 11872 ft | 262 kts | 180° |
| 2026-04-13 02:14 | 33.61747 | -84.37796 | 12591 ft | 267 kts | 180° |
| 2026-04-13 02:14 | 33.59889 | -84.37743 | 13275 ft | 273 kts | 180° |
| 2026-04-13 02:15 | 33.57973 | -84.37682 | 13989 ft | 277 kts | 179° |
| 2026-04-13 02:15 | 33.56052 | -84.37613 | 14698 ft | 280 kts | 180° |
| 2026-04-13 02:15 | 33.54073 | -84.37540 | 15150 ft | 295 kts | 180° |
| 2026-04-13 02:15 | 33.51894 | -84.37456 | 15038 ft | 326 kts | 179° |
| 2026-04-13 02:16 | 33.49532 | -84.37377 | 15246 ft | 343 kts | 180° |
| 2026-04-13 02:16 | 33.47117 | -84.37289 | 15746 ft | 349 kts | 180° |
| 2026-04-13 02:16 | 33.44690 | -84.37201 | 16226 ft | 355 kts | 179° |
| 2026-04-13 02:16 | 33.42202 | -84.37099 | 16711 ft | 361 kts | 180° |
| 2026-04-13 02:17 | 33.39700 | -84.37003 | 17673 ft | 350 kts | 180° |
| 2026-04-13 02:17 | 33.37367 | -84.36891 | 18912 ft | 331 kts | 180° |
| 2026-04-13 02:17 | 33.35058 | -84.36781 | 19453 ft | 336 kts | 180° |
| 2026-04-13 02:17 | 33.32694 | -84.36668 | 19773 ft | 347 kts | 179° |
| 2026-04-13 02:18 | 33.30255 | -84.36559 | 20285 ft | 351 kts | 180° |
| 2026-04-13 02:18 | 33.27892 | -84.35946 | 21050 ft | 348 kts | 153° |
| 2026-04-13 02:18 | 33.25931 | -84.34463 | 22336 ft | 326 kts | 147° |
| 2026-04-13 02:18 | 33.24087 | -84.32925 | 22882 ft | 329 kts | 144° |
| 2026-04-13 02:19 | 33.22204 | -84.31255 | 23167 ft | 340 kts | 143° |
| 2026-04-13 02:19 | 33.20318 | -84.29545 | 23587 ft | 346 kts | 143° |
| 2026-04-13 02:19 | 33.18390 | -84.27784 | 24146 ft | 347 kts | 143° |
| 2026-04-13 02:19 | 33.16473 | -84.26024 | 24683 ft | 349 kts | 142° |
| 2026-04-13 02:20 | 33.14539 | -84.24250 | 25210 ft | 350 kts | 142° |
| 2026-04-13 02:20 | 33.12601 | -84.22471 | 25630 ft | 355 kts | 142° |
| 2026-04-13 02:20 | 33.10622 | -84.20659 | 26098 ft | 358 kts | 142° |
| 2026-04-13 02:20 | 33.08653 | -84.18853 | 26568 ft | 360 kts | 142° |
| 2026-04-13 02:21 | 33.06650 | -84.17021 | 26992 ft | 363 kts | 142° |
| 2026-04-13 02:21 | 33.04663 | -84.15200 | 27437 ft | 365 kts | 142° |
| 2026-04-13 02:21 | 33.02629 | -84.13341 | 27880 ft | 368 kts | 142° |
| 2026-04-13 02:21 | 33.00587 | -84.11475 | 28283 ft | 371 kts | 142° |
| 2026-04-13 02:22 | 32.98543 | -84.09604 | 28663 ft | 375 kts | 142° |
| 2026-04-13 02:22 | 32.96466 | -84.07708 | 29065 ft | 377 kts | 142° |
| 2026-04-13 02:22 | 32.94374 | -84.05799 | 29474 ft | 379 kts | 142° |
| 2026-04-13 02:22 | 32.92265 | -84.03878 | 29881 ft | 382 kts | 142° |
| 2026-04-13 02:23 | 32.90140 | -84.01941 | 30264 ft | 385 kts | 142° |
| 2026-04-13 02:23 | 32.87973 | -83.99970 | 30716 ft | 386 kts | 141° |
| 2026-04-13 02:23 | 32.85858 | -83.98043 | 31205 ft | 385 kts | 141° |
| 2026-04-13 02:23 | 32.83728 | -83.96105 | 31642 ft | 385 kts | 141° |
| 2026-04-13 02:24 | 32.81618 | -83.94186 | 32071 ft | 385 kts | 141° |
| 2026-04-13 02:24 | 32.79483 | -83.92244 | 32518 ft | 385 kts | 141° |
| 2026-04-13 02:24 | 32.77372 | -83.90328 | 32939 ft | 385 kts | 141° |
| 2026-04-13 02:24 | 32.75225 | -83.88380 | 33345 ft | 386 kts | 141° |
| 2026-04-13 02:25 | 32.73104 | -83.86455 | 33770 ft | 385 kts | 141° |
| 2026-04-13 02:25 | 32.70953 | -83.84506 | 34160 ft | 386 kts | 141° |
| 2026-04-13 02:25 | 32.68816 | -83.82571 | 34562 ft | 386 kts | 140° |
| 2026-04-13 02:25 | 32.66666 | -83.80626 | 34980 ft | 385 kts | 140° |
| 2026-04-13 02:26 | 32.64507 | -83.78670 | 35359 ft | 386 kts | 140° |
| 2026-04-13 02:26 | 32.62331 | -83.76703 | 35760 ft | 386 kts | 140° |
| 2026-04-13 02:26 | 32.60177 | -83.74754 | 36153 ft | 386 kts | 140° |
| 2026-04-13 02:26 | 32.58009 | -83.72807 | 36522 ft | 386 kts | 140° |
| 2026-04-13 02:27 | 32.55808 | -83.70818 | 36867 ft | 388 kts | 140° |
| 2026-04-13 02:27 | 32.53658 | -83.68881 | 37233 ft | 388 kts | 140° |
| 2026-04-13 02:27 | 32.51465 | -83.66905 | 37568 ft | 389 kts | 140° |
| 2026-04-13 02:27 | 32.49318 | -83.64970 | 37908 ft | 390 kts | 140° |
| 2026-04-13 02:28 | 32.47152 | -83.63020 | 38268 ft | 390 kts | 140° |
| 2026-04-13 02:28 | 32.44987 | -83.61079 | 38626 ft | 390 kts | 140° |
| 2026-04-13 02:28 | 32.42794 | -83.59104 | 38962 ft | 390 kts | 140° |
| 2026-04-13 02:28 | 32.40628 | -83.57157 | 39265 ft | 391 kts | 140° |
| 2026-04-13 02:29 | 32.38456 | -83.55201 | 39552 ft | 392 kts | 140° |
| 2026-04-13 02:29 | 32.36264 | -83.53237 | 39854 ft | 393 kts | 140° |
| 2026-04-13 02:29 | 32.34105 | -83.51296 | 40184 ft | 392 kts | 140° |
| 2026-04-13 02:29 | 32.31900 | -83.49320 | 40324 ft | 397 kts | 140° |
| 2026-04-13 02:30 | 32.29692 | -83.47342 | 40353 ft | 402 kts | 141° |
| 2026-04-13 02:30 | 32.25173 | -83.43298 | 40347 ft | 410 kts | 140° |
| 2026-04-13 02:31 | 32.20569 | -83.39191 | 40350 ft | 417 kts | 140° |
| 2026-04-13 02:31 | 32.15893 | -83.35015 | 40345 ft | 425 kts | 140° |
| 2026-04-13 02:32 | 32.11126 | -83.30763 | 40334 ft | 431 kts | 141° |
| 2026-04-13 02:32 | 32.06306 | -83.26473 | 40340 ft | 438 kts | 141° |
| 2026-04-13 02:33 | 32.01385 | -83.22098 | 40339 ft | 444 kts | 141° |
| 2026-04-13 02:33 | 31.96426 | -83.17696 | 40328 ft | 450 kts | 141° |
| 2026-04-13 02:34 | 31.91370 | -83.13213 | 40336 ft | 455 kts | 141° |
| 2026-04-13 02:34 | 31.86287 | -83.08715 | 40326 ft | 460 kts | 141° |
| 2026-04-13 02:35 | 31.81137 | -83.04163 | 40332 ft | 460 kts | 140° |
| 2026-04-13 02:35 | 31.76013 | -82.99641 | 40324 ft | 463 kts | 140° |
| 2026-04-13 02:36 | 31.70847 | -82.95086 | 40326 ft | 467 kts | 141° |
| 2026-04-13 02:36 | 31.65601 | -82.90469 | 40331 ft | 470 kts | 140° |
| 2026-04-13 02:37 | 31.60358 | -82.85859 | 40345 ft | 473 kts | 140° |
| 2026-04-13 02:37 | 31.55059 | -82.81207 | 40346 ft | 476 kts | 141° |
| 2026-04-13 02:38 | 31.49735 | -82.76544 | 40351 ft | 478 kts | 140° |
| 2026-04-13 02:38 | 31.44365 | -82.71845 | 40350 ft | 480 kts | 141° |
| 2026-04-13 02:39 | 31.39033 | -82.67185 | 40355 ft | 479 kts | 140° |
| 2026-04-13 02:39 | 31.33699 | -82.62527 | 40335 ft | 476 kts | 140° |
| 2026-04-13 02:40 | 31.28368 | -82.57886 | 40345 ft | 474 kts | 140° |
| 2026-04-13 02:40 | 31.23062 | -82.53271 | 40355 ft | 472 kts | 140° |
| 2026-04-13 02:41 | 31.17760 | -82.48660 | 40350 ft | 470 kts | 140° |
| 2026-04-13 02:41 | 31.12514 | -82.44112 | 40356 ft | 469 kts | 140° |
| 2026-04-13 02:42 | 31.07291 | -82.39583 | 40349 ft | 468 kts | 140° |
| 2026-04-13 02:42 | 31.02049 | -82.35053 | 40332 ft | 467 kts | 140° |
| 2026-04-13 02:43 | 30.96828 | -82.30537 | 40335 ft | 466 kts | 141° |
| 2026-04-13 02:43 | 30.91598 | -82.26025 | 40329 ft | 465 kts | 141° |